createdAt,value
2022-11-08T00:00:40.680Z,0.75
2022-11-08T00:01:44.099Z,0.74
2022-11-08T00:02:49.108Z,0.74
2022-11-08T00:03:52.569Z,0.74
2022-11-08T00:04:56.319Z,0.75
2022-11-08T00:06:17.920Z,0.75
2022-11-08T00:07:38.911Z,0.75
2022-11-08T00:09:01.040Z,0.77
2022-11-08T00:10:22.551Z,0.76
2022-11-08T00:11:43.667Z,0.76
2022-11-08T00:13:05.339Z,0.75
2022-11-08T00:14:09.192Z,0.74
2022-11-08T00:15:12.786Z,0.76
2022-11-08T00:16:16.483Z,0.75
2022-11-08T00:17:23.319Z,0.75
2022-11-08T00:18:27.511Z,0.73
2022-11-08T00:19:31.320Z,0.72
2022-11-08T00:20:36.392Z,0.70
2022-11-08T00:21:39.732Z,0.68
2022-11-08T00:22:43.560Z,0.69
2022-11-08T00:23:47.729Z,0.67
2022-11-08T00:24:53.233Z,0.68
2022-11-08T00:25:56.238Z,0.69
2022-11-08T00:27:00.361Z,0.68
2022-11-08T00:28:03.130Z,0.68
2022-11-08T00:29:07.561Z,0.67
2022-11-08T00:30:12.082Z,0.66
2022-11-08T00:31:17.111Z,0.64
2022-11-08T00:32:22.158Z,0.63
2022-11-08T00:33:26.037Z,0.66
2022-11-08T00:34:28.945Z,0.64
2022-11-08T00:35:32.708Z,0.65
2022-11-08T00:36:35.808Z,0.65
2022-11-08T00:37:43.284Z,0.64
2022-11-08T00:38:47.381Z,0.62
2022-11-08T00:39:51.376Z,0.61
2022-11-08T00:40:54.447Z,0.60
2022-11-08T00:41:59.104Z,0.58
2022-11-08T00:43:01.956Z,0.57
2022-11-08T00:44:06.596Z,0.57
2022-11-08T00:45:09.767Z,0.57
2022-11-08T00:46:13.532Z,0.57
2022-11-08T00:47:18.158Z,0.57
2022-11-08T00:48:21.267Z,0.56
2022-11-08T00:49:25.869Z,0.56
2022-11-08T00:50:28.850Z,0.54
2022-11-08T00:51:33.256Z,0.54
2022-11-08T00:52:36.996Z,0.54
2022-11-08T00:53:40.461Z,0.53
2022-11-08T00:54:45.996Z,0.54
2022-11-08T00:55:48.684Z,0.55
2022-11-08T00:56:52.486Z,0.52
2022-11-08T00:57:59.642Z,0.54
2022-11-08T00:59:04.145Z,0.52
2022-11-08T01:00:10.447Z,0.52
2022-11-08T01:01:14.833Z,0.53
2022-11-08T01:02:18.640Z,0.53
2022-11-08T01:03:21.601Z,0.51
2022-11-08T01:04:26.585Z,0.50
2022-11-08T01:05:29.783Z,0.48
2022-11-08T01:06:33.795Z,0.47
2022-11-08T01:07:38.549Z,0.45
2022-11-08T01:08:44.096Z,0.45
2022-11-08T01:09:49.387Z,0.44
2022-11-08T01:10:53.012Z,0.45
2022-11-08T01:11:57.808Z,0.42
2022-11-08T01:13:03.236Z,0.40
2022-11-08T01:14:06.962Z,0.36
2022-11-08T01:15:10.346Z,0.35
2022-11-08T01:16:16.617Z,0.36
2022-11-08T01:17:20.496Z,0.35
2022-11-08T01:18:23.447Z,0.36
2022-11-08T01:19:27.188Z,0.35
2022-11-08T01:20:30.833Z,0.34
2022-11-08T01:21:35.182Z,0.35
2022-11-08T01:22:37.857Z,0.36
2022-11-08T01:23:42.697Z,0.38
2022-11-08T01:24:45.555Z,0.37
2022-11-08T01:25:51.184Z,0.37
2022-11-08T01:26:54.953Z,0.37
2022-11-08T01:27:58.536Z,0.35
2022-11-08T01:29:02.576Z,0.34
2022-11-08T01:30:06.432Z,0.34
2022-11-08T01:31:12.546Z,0.32
2022-11-08T01:32:15.385Z,0.31
2022-11-08T01:33:19.266Z,0.30
2022-11-08T01:34:22.260Z,0.28
2022-11-08T01:35:26.524Z,0.26
2022-11-08T01:36:33.286Z,0.23
2022-11-08T01:37:36.539Z,0.22
2022-11-08T01:38:40.981Z,0.21
2022-11-08T01:39:43.732Z,0.22
2022-11-08T01:40:49.325Z,0.21
2022-11-08T01:41:54.586Z,0.21
2022-11-08T01:42:57.524Z,0.21
2022-11-08T01:44:01.757Z,0.21
2022-11-08T01:45:05.914Z,0.20
2022-11-08T01:46:35.128Z,0.20
2022-11-08T01:47:39.318Z,0.17
2022-11-08T01:48:44.211Z,0.15
2022-11-08T01:49:48.443Z,0.13
2022-11-08T01:50:51.924Z,0.12
2022-11-08T01:52:03.047Z,0.10
2022-11-08T01:53:07.734Z,0.08
2022-11-08T01:54:14.734Z,0.06
2022-11-08T01:55:22.495Z,0.04
2022-11-08T01:56:27.001Z,0.04
2022-11-08T01:57:36.610Z,0.04
2022-11-08T01:58:40.105Z,0.03
2022-11-08T01:59:46.064Z,0.01
2022-11-08T02:00:49.300Z,-0.01
2022-11-08T02:01:53.488Z,-0.01
2022-11-08T02:02:59.914Z,-0.01
2022-11-08T02:04:03.356Z,-0.01
2022-11-08T02:05:25.005Z,0.01
2022-11-08T02:06:29.052Z,-0.01
2022-11-08T02:07:33.569Z,-0.01
2022-11-08T02:08:39.045Z,0.00
2022-11-08T02:09:45.504Z,-0.02
2022-11-08T02:10:51.129Z,-0.02
2022-11-08T02:11:55.116Z,-0.01
2022-11-08T02:13:03.753Z,-0.01
2022-11-08T02:14:09.016Z,-0.02
2022-11-08T02:15:12.902Z,0.00
2022-11-08T02:16:17.836Z,-0.01
2022-11-08T02:17:20.917Z,0.01
2022-11-08T02:18:27.138Z,0.01
2022-11-08T02:19:37.193Z,0.00
2022-11-08T02:20:45.865Z,-0.01
2022-11-08T02:21:52.097Z,-0.04
2022-11-08T02:23:00.673Z,-0.05
2022-11-08T02:24:09.009Z,-0.06
2022-11-08T02:25:12.810Z,-0.07
2022-11-08T02:26:16.202Z,-0.07
2022-11-08T02:27:20.944Z,-0.08
2022-11-08T02:28:24.076Z,-0.07
2022-11-08T02:29:31.598Z,-0.08
2022-11-08T02:30:34.673Z,-0.09
2022-11-08T02:31:39.038Z,-0.11
2022-11-08T02:32:42.947Z,-0.11
2022-11-08T02:33:48.721Z,-0.12
2022-11-08T02:34:53.817Z,-0.11
2022-11-08T02:35:59.126Z,-0.10
2022-11-08T02:37:02.694Z,-0.09
2022-11-08T02:38:06.714Z,-0.09
2022-11-08T02:39:11.035Z,-0.07
2022-11-08T02:40:15.024Z,-0.06
2022-11-08T02:41:17.784Z,-0.07
2022-11-08T02:42:22.196Z,-0.07
2022-11-08T02:43:25.716Z,-0.07
2022-11-08T02:44:30.337Z,-0.06
2022-11-08T02:45:34.177Z,-0.08
2022-11-08T02:46:37.917Z,-0.08
2022-11-08T02:47:41.056Z,-0.08
2022-11-08T02:48:45.105Z,-0.08
2022-11-08T02:49:48.038Z,-0.09
2022-11-08T02:50:51.887Z,-0.09
2022-11-08T02:51:55.874Z,-0.08
2022-11-08T02:52:58.727Z,-0.08
2022-11-08T02:54:03.372Z,-0.08
2022-11-08T02:55:08.828Z,-0.07
2022-11-08T02:56:13.036Z,-0.07
2022-11-08T02:57:16.052Z,-0.06
2022-11-08T02:58:20.225Z,-0.07
2022-11-08T02:59:24.308Z,-0.09
2022-11-08T03:00:28.475Z,-0.13
2022-11-08T03:01:31.172Z,-0.15
2022-11-08T03:02:36.037Z,-0.17
2022-11-08T03:03:39.166Z,-0.17
2022-11-08T03:04:42.905Z,-0.16
2022-11-08T03:05:47.750Z,-0.13
2022-11-08T03:06:51.752Z,-0.10
2022-11-08T03:07:56.572Z,-0.05
2022-11-08T03:09:00.505Z,-0.04
2022-11-08T03:10:03.223Z,-0.02
2022-11-08T03:11:10.055Z,-0.02
2022-11-08T03:12:16.165Z,-0.02
2022-11-08T03:13:18.904Z,-0.02
2022-11-08T03:14:24.401Z,-0.02
2022-11-08T03:15:28.450Z,-0.03
2022-11-08T03:16:32.863Z,-0.04
2022-11-08T03:17:36.643Z,-0.05
2022-11-08T03:18:40.565Z,-0.05
2022-11-08T03:19:44.898Z,-0.06
2022-11-08T03:20:48.563Z,-0.07
2022-11-08T03:21:52.274Z,-0.09
2022-11-08T03:23:01.220Z,-0.11
2022-11-08T03:24:06.378Z,-0.14
2022-11-08T03:25:10.415Z,-0.16
2022-11-08T03:26:14.507Z,-0.16
2022-11-08T03:27:19.575Z,-0.17
2022-11-08T03:28:24.727Z,-0.19
2022-11-08T03:29:31.256Z,-0.19
2022-11-08T03:30:34.433Z,-0.20
2022-11-08T03:31:40.576Z,-0.21
2022-11-08T03:32:44.633Z,-0.20
2022-11-08T03:33:48.305Z,-0.21
2022-11-08T03:34:50.996Z,-0.22
2022-11-08T03:35:56.286Z,-0.23
2022-11-08T03:36:59.306Z,-0.24
2022-11-08T03:38:03.304Z,-0.25
2022-11-08T03:39:07.006Z,-0.26
2022-11-08T03:40:11.084Z,-0.27
2022-11-08T03:41:18.028Z,-0.29
2022-11-08T03:42:22.675Z,-0.29
2022-11-08T03:43:28.163Z,-0.30
2022-11-08T03:44:32.926Z,-0.30
2022-11-08T03:45:37.326Z,-0.32
2022-11-08T03:46:40.026Z,-0.29
2022-11-08T03:47:45.635Z,-0.31
2022-11-08T03:48:50.946Z,-0.33
2022-11-08T03:49:56.091Z,-0.35
2022-11-08T03:50:59.175Z,-0.38
2022-11-08T03:52:04.496Z,-0.40
2022-11-08T03:53:07.223Z,-0.43
2022-11-08T03:54:11.633Z,-0.44
2022-11-08T03:55:17.314Z,-0.44
2022-11-08T03:56:22.500Z,-0.44
2022-11-08T03:57:25.135Z,-0.42
2022-11-08T03:58:29.223Z,-0.43
2022-11-08T03:59:32.012Z,-0.45
2022-11-08T04:00:35.740Z,-0.45
2022-11-08T04:01:41.312Z,-0.47
2022-11-08T04:02:45.634Z,-0.48
2022-11-08T04:03:49.369Z,-0.48
2022-11-08T04:04:54.315Z,-0.47
2022-11-08T04:05:58.417Z,-0.48
2022-11-08T04:07:02.235Z,-0.51
2022-11-08T04:08:07.385Z,-0.50
2022-11-08T04:09:14.012Z,-0.51
2022-11-08T04:10:19.368Z,-0.50
2022-11-08T04:11:41.756Z,-0.49
2022-11-08T04:13:02.935Z,-0.50
2022-11-08T04:14:24.157Z,-0.49
2022-11-08T04:15:29.210Z,-0.48
2022-11-08T04:16:32.645Z,-0.46
2022-11-08T04:17:50.172Z,-0.45
2022-11-08T04:19:11.221Z,-0.41
2022-11-08T04:20:35.224Z,-0.37
2022-11-08T04:21:39.175Z,-0.39
2022-11-08T04:22:41.885Z,-0.41
2022-11-08T04:23:49.396Z,-0.43
2022-11-08T04:24:52.090Z,-0.44
2022-11-08T04:25:57.058Z,-0.44
2022-11-08T04:27:03.515Z,-0.45
2022-11-08T04:28:09.539Z,-0.46
2022-11-08T04:29:13.413Z,-0.45
2022-11-08T04:30:18.888Z,-0.46
2022-11-08T04:31:22.586Z,-0.44
2022-11-08T04:32:25.827Z,-0.45
2022-11-08T04:33:29.534Z,-0.46
2022-11-08T04:34:32.245Z,-0.46
2022-11-08T04:35:35.959Z,-0.48
2022-11-08T04:36:41.264Z,-0.50
2022-11-08T04:37:44.090Z,-0.51
2022-11-08T04:38:49.744Z,-0.54
2022-11-08T04:39:52.594Z,-0.54
2022-11-08T04:41:02.772Z,-0.54
2022-11-08T04:42:07.996Z,-0.54
2022-11-08T04:43:13.697Z,-0.54
2022-11-08T04:44:18.660Z,-0.55
2022-11-08T04:45:22.655Z,-0.54
2022-11-08T04:46:31.356Z,-0.54
2022-11-08T04:47:38.928Z,-0.55
2022-11-08T04:48:45.735Z,-0.55
2022-11-08T04:49:50.135Z,-0.54
2022-11-08T04:50:56.725Z,-0.53
2022-11-08T04:51:59.393Z,-0.52
2022-11-08T04:53:03.178Z,-0.50
2022-11-08T04:54:10.336Z,-0.49
2022-11-08T04:55:16.336Z,-0.54
2022-11-08T04:56:20.756Z,-0.56
2022-11-08T04:57:27.147Z,-0.58
2022-11-08T04:58:30.022Z,-0.59
2022-11-08T04:59:33.749Z,-0.57
2022-11-08T05:00:39.355Z,-0.57
2022-11-08T05:01:44.263Z,-0.57
2022-11-08T05:02:47.136Z,-0.55
2022-11-08T05:03:52.286Z,-0.56
2022-11-08T05:04:55.506Z,-0.55
2022-11-08T05:06:05.236Z,-0.54
2022-11-08T05:07:10.073Z,-0.53
2022-11-08T05:08:13.803Z,-0.51
2022-11-08T05:09:19.266Z,-0.49
2022-11-08T05:10:25.705Z,-0.50
2022-11-08T05:11:32.664Z,-0.51
2022-11-08T05:12:37.787Z,-0.53
2022-11-08T05:13:40.666Z,-0.54
2022-11-08T05:14:44.480Z,-0.57
2022-11-08T05:15:58.543Z,-0.58
2022-11-08T05:17:04.254Z,-0.57
2022-11-08T05:18:07.327Z,-0.57
2022-11-08T05:19:13.345Z,-0.57
2022-11-08T05:20:34.637Z,-0.57
2022-11-08T05:21:55.577Z,-0.60
2022-11-08T05:23:21.463Z,-0.60
2022-11-08T05:24:27.306Z,-0.61
2022-11-08T05:25:32.287Z,-0.61
2022-11-08T05:26:37.848Z,-0.59
2022-11-08T05:27:41.944Z,-0.59
2022-11-08T05:28:45.825Z,-0.59
2022-11-08T05:29:48.528Z,-0.61
2022-11-08T05:30:55.974Z,-0.60
2022-11-08T05:31:58.615Z,-0.61
2022-11-08T05:33:02.375Z,-0.61
2022-11-08T05:34:07.549Z,-0.61
2022-11-08T05:35:10.317Z,-0.60
2022-11-08T05:36:15.555Z,-0.60
2022-11-08T05:37:18.206Z,-0.60
2022-11-08T05:38:22.546Z,-0.59
2022-11-08T05:39:31.797Z,-0.59
2022-11-08T05:40:35.896Z,-0.59
2022-11-08T05:41:38.576Z,-0.59
2022-11-08T05:42:43.803Z,-0.60
2022-11-08T05:43:48.092Z,-0.61
2022-11-08T05:44:51.843Z,-0.62
2022-11-08T05:45:56.227Z,-0.63
2022-11-08T05:47:00.035Z,-0.63
2022-11-08T05:48:04.164Z,-0.64
2022-11-08T05:49:11.155Z,-0.63
2022-11-08T05:50:19.274Z,-0.63
2022-11-08T05:51:23.348Z,-0.62
2022-11-08T05:52:26.363Z,-0.59
2022-11-08T05:53:30.114Z,-0.58
2022-11-08T05:54:32.817Z,-0.57
2022-11-08T05:55:36.574Z,-0.56
2022-11-08T05:56:42.412Z,-0.55
2022-11-08T05:57:47.703Z,-0.53
2022-11-08T05:58:50.426Z,-0.51
2022-11-08T05:59:54.217Z,-0.51
2022-11-08T06:01:00.724Z,-0.51
2022-11-08T06:02:04.585Z,-0.50
2022-11-08T06:03:07.931Z,-0.46
2022-11-08T06:04:11.715Z,-0.41
2022-11-08T06:05:14.842Z,-0.37
2022-11-08T06:06:22.386Z,-0.34
2022-11-08T06:07:25.101Z,-0.30
2022-11-08T06:08:28.813Z,-0.25
2022-11-08T06:09:31.424Z,-0.20
2022-11-08T06:10:35.184Z,-0.16
2022-11-08T06:11:38.495Z,-0.13
2022-11-08T06:12:42.309Z,-0.08
2022-11-08T06:13:46.424Z,-0.03
2022-11-08T06:14:50.264Z,0.04
2022-11-08T06:15:54.297Z,0.09
2022-11-08T06:16:57.059Z,0.17
2022-11-08T06:18:04.024Z,0.23
2022-11-08T06:19:07.827Z,0.29
2022-11-08T06:20:13.364Z,0.36
2022-11-08T06:21:20.816Z,0.45
2022-11-08T06:22:23.551Z,0.57
2022-11-08T06:23:30.395Z,0.73
2022-11-08T06:24:33.103Z,0.92
2022-11-08T06:25:36.775Z,1.12
2022-11-08T06:26:40.121Z,1.29
2022-11-08T06:27:44.324Z,1.46
2022-11-08T06:28:48.425Z,1.63
2022-11-08T06:29:52.174Z,1.79
2022-11-08T06:30:54.935Z,1.88
2022-11-08T06:31:58.988Z,1.94
2022-11-08T06:33:01.961Z,2.01
2022-11-08T06:34:05.735Z,2.06
2022-11-08T06:35:10.027Z,2.10
2022-11-08T06:36:16.085Z,2.13
2022-11-08T06:37:21.704Z,2.17
2022-11-08T06:38:25.920Z,2.23
2022-11-08T06:39:33.565Z,2.29
2022-11-08T06:40:39.487Z,2.42
2022-11-08T06:41:43.235Z,2.48
2022-11-08T06:42:47.069Z,2.56
2022-11-08T06:43:51.171Z,2.65
2022-11-08T06:44:54.875Z,2.70
2022-11-08T06:46:01.228Z,2.76
2022-11-08T06:47:05.106Z,2.81
2022-11-08T06:48:08.864Z,2.87
2022-11-08T06:49:12.655Z,2.93
2022-11-08T06:50:15.536Z,2.97
2022-11-08T06:51:19.634Z,2.99
2022-11-08T06:52:22.364Z,3.00
2022-11-08T06:53:26.164Z,2.98
2022-11-08T06:54:29.953Z,2.98
2022-11-08T06:55:33.143Z,2.95
2022-11-08T06:56:37.395Z,2.93
2022-11-08T06:57:41.754Z,2.94
2022-11-08T06:58:44.732Z,2.99
2022-11-08T06:59:49.915Z,3.08
2022-11-08T07:00:52.644Z,3.19
2022-11-08T07:01:57.291Z,3.30
2022-11-08T07:03:03.050Z,3.40
2022-11-08T07:04:07.315Z,3.47
2022-11-08T07:05:10.518Z,3.55
2022-11-08T07:06:14.297Z,3.64
2022-11-08T07:07:18.027Z,3.74
2022-11-08T07:08:24.279Z,3.80
2022-11-08T07:09:28.165Z,3.87
2022-11-08T07:10:35.306Z,3.93
2022-11-08T07:11:40.446Z,3.99
2022-11-08T07:12:44.292Z,4.04
2022-11-08T07:13:49.535Z,4.09
2022-11-08T07:14:54.676Z,4.15
2022-11-08T07:16:02.979Z,4.21
2022-11-08T07:17:07.333Z,4.26
2022-11-08T07:18:12.038Z,4.31
2022-11-08T07:19:16.298Z,4.38
2022-11-08T07:20:18.966Z,4.47
2022-11-08T07:21:23.046Z,4.51
2022-11-08T07:22:26.513Z,4.54
2022-11-08T07:23:30.534Z,4.61
2022-11-08T07:24:34.275Z,4.70
2022-11-08T07:25:37.407Z,4.81
2022-11-08T07:26:41.235Z,4.93
2022-11-08T07:27:44.012Z,5.06
2022-11-08T07:28:47.777Z,5.18
2022-11-08T07:29:51.543Z,5.30
2022-11-08T07:30:59.644Z,5.40
2022-11-08T07:32:02.446Z,5.47
2022-11-08T07:33:06.234Z,5.54
2022-11-08T07:34:09.914Z,5.60
2022-11-08T07:35:12.690Z,5.67
2022-11-08T07:36:16.549Z,5.73
2022-11-08T07:37:19.234Z,5.79
2022-11-08T07:38:23.298Z,5.85
2022-11-08T07:39:27.086Z,5.90
2022-11-08T07:40:29.775Z,5.97
2022-11-08T07:41:33.514Z,6.04
2022-11-08T07:43:04.831Z,6.10
2022-11-08T07:44:00.435Z,6.16
2022-11-08T07:45:03.346Z,6.19
2022-11-08T07:46:08.797Z,6.22
2022-11-08T07:47:12.401Z,6.26
2022-11-08T07:48:15.116Z,6.29
2022-11-08T07:49:19.063Z,6.34
2022-11-08T07:50:22.475Z,6.37
2022-11-08T07:51:26.225Z,6.42
2022-11-08T07:52:28.936Z,6.48
2022-11-08T07:53:32.705Z,6.52
2022-11-08T07:54:35.503Z,6.58
2022-11-08T07:55:39.681Z,6.63
2022-11-08T07:56:43.538Z,6.68
2022-11-08T07:57:46.340Z,6.73
2022-11-08T07:58:50.386Z,6.79
2022-11-08T07:59:53.355Z,6.85
2022-11-08T08:01:02.126Z,6.92
2022-11-08T08:02:06.422Z,6.99
2022-11-08T08:03:12.047Z,7.09
2022-11-08T08:04:16.264Z,7.18
2022-11-08T08:05:18.966Z,7.26
2022-11-08T08:06:23.554Z,7.36
2022-11-08T08:07:26.298Z,7.45
2022-11-08T08:08:31.076Z,7.53
2022-11-08T08:09:34.946Z,7.60
2022-11-08T08:10:38.795Z,7.68
2022-11-08T08:11:42.485Z,7.75
2022-11-08T08:12:45.026Z,7.80
2022-11-08T08:13:48.584Z,7.86
2022-11-08T08:14:51.287Z,7.92
2022-11-08T08:15:54.965Z,7.96
2022-11-08T08:16:58.767Z,8.01
2022-11-08T08:18:05.285Z,8.06
2022-11-08T08:19:09.125Z,8.12
2022-11-08T08:20:12.857Z,8.20
2022-11-08T08:21:16.776Z,8.27
2022-11-08T08:22:19.409Z,8.34
2022-11-08T08:23:23.368Z,8.41
2022-11-08T08:24:26.835Z,8.48
2022-11-08T08:25:31.720Z,8.54
2022-11-08T08:26:35.595Z,8.60
2022-11-08T08:27:38.503Z,8.68
2022-11-08T08:28:42.204Z,8.73
2022-11-08T08:29:45.301Z,8.79
2022-11-08T08:30:49.269Z,8.83
2022-11-08T08:31:52.976Z,8.88
2022-11-08T08:34:28.936Z,9.01
2022-11-08T08:35:31.577Z,9.05
2022-11-08T08:36:35.296Z,9.09
2022-11-08T08:37:37.995Z,9.14
2022-11-08T08:38:44.675Z,9.20
2022-11-08T08:39:48.296Z,9.26
2022-11-08T08:40:52.151Z,9.31
2022-11-08T08:41:54.836Z,9.36
2022-11-08T08:42:59.872Z,9.43
2022-11-08T08:44:03.619Z,9.48
2022-11-08T08:45:13.520Z,9.53
2022-11-08T08:46:18.471Z,9.60
2022-11-08T08:47:21.154Z,9.65
2022-11-08T08:48:26.323Z,9.71
2022-11-08T08:49:29.828Z,9.75
2022-11-08T08:50:34.814Z,9.78
2022-11-08T08:51:38.476Z,9.82
2022-11-08T08:52:42.063Z,9.87
2022-11-08T08:53:45.067Z,9.94
2022-11-08T08:54:49.232Z,10.01
2022-11-08T08:55:53.792Z,10.06
2022-11-08T08:56:57.716Z,10.12
2022-11-08T08:58:01.422Z,10.18
2022-11-08T09:01:53.147Z,10.35
2022-11-08T09:02:56.094Z,10.39
2022-11-08T09:04:01.421Z,10.45
2022-11-08T09:05:05.704Z,10.50
2022-11-08T09:06:09.736Z,10.54
2022-11-08T09:07:13.576Z,10.57
2022-11-08T09:08:17.509Z,10.60
2022-11-08T09:09:21.278Z,10.64
2022-11-08T09:10:25.117Z,10.66
2022-11-08T09:11:28.855Z,10.68
2022-11-08T09:12:31.777Z,10.72
2022-11-08T09:13:35.578Z,10.76
2022-11-08T09:14:39.205Z,10.81
2022-11-08T09:15:41.855Z,10.83
2022-11-08T09:16:45.646Z,10.87
2022-11-08T09:17:49.726Z,10.90
2022-11-08T09:18:53.592Z,10.94
2022-11-08T09:19:58.917Z,10.99
2022-11-08T09:21:04.578Z,11.04
2022-11-08T09:22:08.383Z,11.08
2022-11-08T09:23:11.371Z,11.12
2022-11-08T09:24:15.182Z,11.15
2022-11-08T09:25:17.967Z,11.20
2022-11-08T09:26:21.747Z,11.25
2022-11-08T09:27:24.497Z,11.31
2022-11-08T09:28:31.252Z,11.36
2022-11-08T09:29:35.706Z,11.41
2022-11-08T09:30:39.406Z,11.45
2022-11-08T09:31:43.128Z,11.50
2022-11-08T09:33:00.355Z,11.54
2022-11-08T09:34:04.785Z,11.59
2022-11-08T09:35:10.066Z,11.64
2022-11-08T09:36:15.128Z,11.68
2022-11-08T09:37:18.915Z,11.75
2022-11-08T09:38:23.182Z,11.82
2022-11-08T09:39:25.880Z,11.87
2022-11-08T09:40:33.652Z,11.93
2022-11-08T09:41:51.504Z,11.98
2022-11-08T09:43:05.524Z,12.03
2022-11-08T09:44:15.734Z,12.10
2022-11-08T09:45:30.536Z,12.17
2022-11-08T09:46:40.756Z,12.23
2022-11-08T09:47:47.799Z,12.31
2022-11-08T09:48:56.635Z,12.35
2022-11-08T09:50:02.097Z,12.38
2022-11-08T09:51:09.428Z,12.44
2022-11-08T09:52:24.706Z,12.50
2022-11-08T09:53:35.548Z,12.56
2022-11-08T09:54:41.622Z,12.62
2022-11-08T09:55:47.854Z,12.66
2022-11-08T09:56:52.617Z,12.72
2022-11-08T09:58:01.451Z,12.78
2022-11-08T09:59:10.729Z,12.83
2022-11-08T10:00:14.512Z,12.90
2022-11-08T10:01:21.119Z,12.98
2022-11-08T10:02:27.559Z,13.05
2022-11-08T10:03:31.764Z,13.10
2022-11-08T10:04:38.204Z,13.12
2022-11-08T10:05:44.026Z,13.17
2022-11-08T10:07:02.752Z,13.21
2022-11-08T10:08:12.450Z,13.22
2022-11-08T10:09:30.737Z,13.25
2022-11-08T10:11:08.275Z,13.27
2022-11-08T10:12:19.459Z,13.28
2022-11-08T10:13:27.603Z,13.29
2022-11-08T10:14:49.031Z,13.33
2022-11-08T10:16:05.899Z,13.36
2022-11-08T10:17:32.867Z,13.40
2022-11-08T10:18:43.226Z,13.44
2022-11-08T10:20:06.660Z,13.49
2022-11-08T10:21:20.001Z,13.53
2022-11-08T10:22:32.165Z,13.59
2022-11-08T10:23:44.070Z,13.64
2022-11-08T10:24:54.155Z,13.68
2022-11-08T10:26:01.258Z,13.73
2022-11-08T10:27:07.203Z,13.75
2022-11-08T10:28:13.521Z,13.78
2022-11-08T10:29:21.732Z,13.81
2022-11-08T10:30:26.807Z,13.87
2022-11-08T10:31:33.255Z,13.90
2022-11-08T10:32:36.577Z,13.90
2022-11-08T10:33:44.651Z,13.89
2022-11-08T10:34:53.444Z,13.92
2022-11-08T10:36:02.358Z,13.93
2022-11-08T10:37:10.627Z,13.95
2022-11-08T10:38:20.838Z,13.96
2022-11-08T10:39:27.346Z,13.98
2022-11-08T10:40:39.292Z,14.02
2022-11-08T10:41:46.353Z,14.05
2022-11-08T10:42:55.246Z,14.10
2022-11-08T10:44:04.777Z,14.13
2022-11-08T10:45:10.927Z,14.16
2022-11-08T10:46:39.824Z,14.18
2022-11-08T10:47:46.267Z,14.23
2022-11-08T10:48:50.094Z,14.29
2022-11-08T10:49:57.225Z,14.32
2022-11-08T10:51:03.656Z,14.38
2022-11-08T10:52:19.193Z,14.40
2022-11-08T10:53:27.840Z,14.43
2022-11-08T10:54:45.920Z,14.43
2022-11-08T10:55:52.094Z,14.43
2022-11-08T10:56:56.041Z,14.47
2022-11-08T10:57:59.886Z,14.50
2022-11-08T10:59:03.795Z,14.54
2022-11-08T11:00:27.665Z,14.60
2022-11-08T11:01:30.391Z,14.63
2022-11-08T11:02:36.303Z,14.66
2022-11-08T11:03:40.064Z,14.69
2022-11-08T11:04:42.805Z,14.75
2022-11-08T11:06:00.924Z,14.77
2022-11-08T11:07:04.575Z,14.80
2022-11-08T11:08:19.368Z,14.85
2022-11-08T11:09:28.655Z,14.87
2022-11-08T11:10:33.345Z,14.89
2022-11-08T11:11:38.764Z,14.94
2022-11-08T11:12:41.819Z,14.98
2022-11-08T11:13:45.717Z,15.02
2022-11-08T11:14:57.046Z,15.04
2022-11-08T11:16:03.346Z,15.06
2022-11-08T11:17:15.399Z,15.09
2022-11-08T11:18:27.185Z,15.13
2022-11-08T11:19:31.727Z,15.16
2022-11-08T11:20:35.585Z,15.19
2022-11-08T11:21:39.904Z,15.22
2022-11-08T11:22:47.422Z,15.23
2022-11-08T11:23:53.246Z,15.23
2022-11-08T11:24:58.661Z,15.24
2022-11-08T11:26:01.506Z,15.28
2022-11-08T11:27:07.096Z,15.29
2022-11-08T11:28:15.672Z,15.32
2022-11-08T11:29:22.722Z,15.34
2022-11-08T11:30:33.948Z,15.39
2022-11-08T11:31:38.630Z,15.45
2022-11-08T11:32:44.133Z,15.49
2022-11-08T11:33:48.365Z,15.53
2022-11-08T11:34:56.925Z,15.56
2022-11-08T11:36:13.793Z,15.56
2022-11-08T11:37:55.878Z,15.56
2022-11-08T11:39:01.707Z,15.58
2022-11-08T11:40:13.684Z,15.60
2022-11-08T11:41:19.783Z,15.62
2022-11-08T11:44:02.344Z,15.81
2022-11-08T11:45:13.108Z,15.92
2022-11-08T11:46:22.174Z,15.98
2022-11-08T11:47:30.454Z,16.08
2022-11-08T11:48:38.474Z,16.15
2022-11-08T11:49:45.086Z,16.23
2022-11-08T11:50:50.178Z,16.30
2022-11-08T11:51:55.218Z,16.35
2022-11-08T11:52:59.286Z,16.41
2022-11-08T11:54:04.877Z,16.46
2022-11-08T11:55:13.343Z,16.51
2022-11-08T11:56:26.939Z,16.55
2022-11-08T11:57:36.655Z,16.60
2022-11-08T11:59:11.742Z,16.70
2022-11-08T12:00:16.411Z,16.74
2022-11-08T12:01:26.664Z,16.81
2022-11-08T12:02:59.904Z,16.90
2022-11-08T12:04:25.632Z,16.95
2022-11-08T12:05:36.765Z,16.91
2022-11-08T12:06:46.010Z,16.89
2022-11-08T12:07:56.007Z,16.85
2022-11-08T12:09:14.545Z,16.80
2022-11-08T12:10:27.415Z,16.76
2022-11-08T12:11:38.662Z,16.72
2022-11-08T12:12:50.408Z,16.68
2022-11-08T12:14:07.015Z,16.65
2022-11-08T12:15:17.414Z,16.61
2022-11-08T12:16:25.173Z,16.59
2022-11-08T12:17:49.283Z,16.57
2022-11-08T12:19:03.274Z,16.57
2022-11-08T12:20:20.422Z,16.59
2022-11-08T12:21:31.354Z,16.66
2022-11-08T12:22:49.184Z,16.70
2022-11-08T12:24:01.794Z,16.75
2022-11-08T12:25:08.545Z,16.79
2022-11-08T12:26:19.635Z,16.81
2022-11-08T12:27:31.824Z,16.81
2022-11-08T12:28:47.395Z,16.81
2022-11-08T12:29:55.446Z,16.80
2022-11-08T12:31:04.994Z,16.77
2022-11-08T12:32:24.141Z,16.73
2022-11-08T12:33:36.025Z,16.72
2022-11-08T12:34:47.264Z,16.72
2022-11-08T12:36:02.724Z,16.75
2022-11-08T12:37:17.085Z,16.83
2022-11-08T12:38:26.873Z,16.93
2022-11-08T12:39:36.054Z,17.02
2022-11-08T12:40:44.700Z,17.08
2022-11-08T12:41:55.892Z,17.14
2022-11-08T12:43:12.252Z,17.18
2022-11-08T12:44:41.144Z,17.27
2022-11-08T12:45:53.362Z,17.34
2022-11-08T12:47:07.593Z,17.49
2022-11-08T12:48:21.911Z,17.67
2022-11-08T12:49:34.940Z,17.84
2022-11-08T12:50:44.974Z,18.01
2022-11-08T12:52:00.878Z,18.15
2022-11-08T12:53:48.753Z,18.23
2022-11-08T12:54:55.715Z,18.32
2022-11-08T12:56:00.136Z,18.35
2022-11-08T12:57:10.555Z,18.42
2022-11-08T12:58:24.943Z,18.54
2022-11-08T12:59:31.615Z,18.66
2022-11-08T13:00:36.159Z,18.78
2022-11-08T13:01:38.961Z,18.78
2022-11-08T13:02:44.022Z,18.77
2022-11-08T13:04:06.687Z,18.81
2022-11-08T13:05:13.811Z,18.88
2022-11-08T13:06:22.610Z,18.89
2022-11-08T13:07:35.532Z,18.89
2022-11-08T13:08:44.609Z,18.88
2022-11-08T13:09:53.200Z,18.89
2022-11-08T13:11:00.153Z,18.91
2022-11-08T13:12:14.735Z,18.99
2022-11-08T13:13:27.463Z,19.03
2022-11-08T13:14:31.484Z,19.11
2022-11-08T13:15:35.242Z,19.11
2022-11-08T13:16:40.232Z,19.10
2022-11-08T13:18:25.430Z,19.09
2022-11-08T13:19:30.503Z,19.07
2022-11-08T13:20:42.051Z,19.09
2022-11-08T13:21:46.297Z,19.16
2022-11-08T13:23:00.639Z,19.15
2022-11-08T13:24:43.948Z,19.18
2022-11-08T13:25:49.034Z,19.23
2022-11-08T13:26:55.771Z,19.27
2022-11-08T13:28:37.381Z,19.38
2022-11-08T13:29:41.126Z,19.46
2022-11-08T13:30:44.288Z,19.50
2022-11-08T13:31:51.762Z,19.53
2022-11-08T13:33:00.393Z,19.51
2022-11-08T13:34:26.015Z,19.50
2022-11-08T13:35:34.116Z,19.51
2022-11-08T13:36:47.472Z,19.55
2022-11-08T13:38:01.914Z,19.74
2022-11-08T13:39:20.502Z,19.89
2022-11-08T13:40:45.924Z,20.06
2022-11-08T13:42:05.695Z,20.09
2022-11-08T13:43:25.683Z,20.06
2022-11-08T13:45:00.968Z,20.07
2022-11-08T13:46:37.535Z,19.96
2022-11-08T13:47:55.835Z,19.78
2022-11-08T13:49:07.413Z,19.72
2022-11-08T13:50:48.733Z,19.64
2022-11-08T13:52:45.923Z,19.57
2022-11-08T13:53:51.686Z,19.23
2022-11-08T13:54:56.065Z,19.04
2022-11-08T13:56:09.206Z,18.88
2022-11-08T13:57:18.966Z,18.68
2022-11-08T13:58:36.402Z,18.59
2022-11-08T13:59:55.513Z,18.59
2022-11-08T14:00:59.806Z,18.58
2022-11-08T14:02:04.249Z,18.51
2022-11-08T14:03:43.624Z,18.46
2022-11-08T14:04:47.588Z,18.41
2022-11-08T14:05:51.773Z,18.37
2022-11-08T14:07:03.097Z,18.33
2022-11-08T14:08:21.625Z,18.31
2022-11-08T14:09:33.774Z,18.21
2022-11-08T14:10:40.491Z,18.12
2022-11-08T14:11:52.465Z,18.06
2022-11-08T14:13:00.834Z,18.04
2022-11-08T14:14:35.974Z,18.09
2022-11-08T14:15:44.408Z,18.02
2022-11-08T14:17:02.521Z,17.93
2022-11-08T14:18:07.785Z,17.90
2022-11-08T14:19:23.634Z,17.87
2022-11-08T14:20:35.041Z,17.74
2022-11-08T14:21:37.773Z,17.54
2022-11-08T14:22:49.853Z,17.37
2022-11-08T14:23:53.167Z,17.38
2022-11-08T14:25:01.581Z,17.36
2022-11-08T14:26:07.774Z,17.26
2022-11-08T14:27:14.213Z,17.23
2022-11-08T14:28:26.146Z,17.19
2022-11-08T14:29:29.945Z,17.14
2022-11-08T14:30:35.045Z,17.17
2022-11-08T14:31:38.825Z,17.19
2022-11-08T14:32:42.626Z,17.18
2022-11-08T14:33:45.494Z,17.18
2022-11-08T14:34:49.346Z,17.14
2022-11-08T14:35:58.156Z,17.03
2022-11-08T14:37:03.073Z,16.86
2022-11-08T14:38:14.163Z,16.57
2022-11-08T14:39:19.091Z,16.32
2022-11-08T14:40:24.405Z,16.05